LFPO Airport Information

Runway Information
Runway 02 Length 7874 ft width 197 ft
Elevation 287 ft Threshold 0 ft Heading 18
Runway 20 Length 7874 ft Width 197 ft
Elevation 287 ft Threshold 0 ft Heading 198
Runway 06 Length 11975 ft width 148 ft
Elevation 283 ft Threshold 984 ft Heading 62
Runway 24 Length 11975 ft Width 148 ft
Elevation 284 ft Threshold 0 ft Heading 242
Runway 08 Length 10892 ft width 148 ft
Elevation 277 ft Threshold 0 ft Heading 74
Runway 26 Length 10892 ft Width 148 ft
Elevation 287 ft Threshold 1427 ft Heading 254
Airport Frequencies
Type APP Name APP Frequency 123.875 MHZ
Type ATIS Name ATIS Frequency 131.35 MHZ
Type DEP Name DEP Frequency 127.75 MHZ
Type GND Name GND Frequency 121.7 MHZ
Type PFLT Name PREFLIGHT Frequency 121.05 MHZ
Type TWR Name TWR Frequency 118.7 MHZ
Airport Navaids
Type VOR-DME Name Orly Frequency 111200 KHZ
Airport Weather Information & NOTAM
ADDS - METARS form results

(2257 UTC 12 July 2020)
Data provider http://aviationweather.gov/metar/data/
 
METAR text: LFPO 122230Z 03010KT CAVOK 19/08 Q1024 NOSIG
Conditions at: LFPO (PARIS/ORLY , FR) observed 2230 UTC 12 July 2020
Temperature: 19.0°C (66°F)
Dewpoint: 8.0°C (46°F) [RH = 49%]
Pressure (altimeter): 30.24 inches Hg (1024.0 mb)
Winds: from the NNE (30 degrees) at 12 MPH (10 knots; 5.1 m/s)
Visibility: 6 or more miles (10+ km)
Ceiling: ceiling and visibility are OK
Clouds: unknown
Weather: no significant weather observed at this time

METAR text: LFPO 122200Z 03010KT CAVOK 20/08 Q1024 NOSIG
Conditions at: LFPO (PARIS/ORLY , FR) observed 2200 UTC 12 July 2020
Temperature: 20.0°C (68°F)
Dewpoint: 8.0°C (46°F) [RH = 46%]
Pressure (altimeter): 30.24 inches Hg (1024.0 mb)
Winds: from the NNE (30 degrees) at 12 MPH (10 knots; 5.1 m/s)
Visibility: 6 or more miles (10+ km)
Ceiling: ceiling and visibility are OK
Clouds: unknown
Weather: no significant weather observed at this time

Forecast for: LFPO (PARIS/ORLY , FR)
Text: TAF LFPO 121700Z 1218/1324 04008KT CAVOK
Forecast period: 1800 UTC 12 July 2020 to 0400 UTC 13 July 2020
Forecast type: FROM: standard forecast or significant change
Winds: from the NE (40 degrees) at 9 MPH (8 knots; 4.1 m/s)
Visibility: 6 or more miles 10+ km)
Ceiling: unknown
Clouds: missing
Weather: NSW  (no significant weather)
Text: BECMG 1304/1307 34005KT
Forecast period: 0400 UTC 13 July 2020 to 0000 UTC 14 July 2020
Forecast type: BECOMING: Conditions expected to become as follows by 0700 UTC 13 July 2020
Winds: from the NNW (340 degrees) at 6 MPH (5 knots; 2.6 m/s)
Visibility: 6 or more miles 10+ km)
Ceiling: unknown
Clouds: missing
Weather: NSW  (no significant weather)